Time;durP1;ratioP1;P1;durP2;ratioP2;P2;SDS_P1;SDS_P2;PMS_P1;PMS_P2;Temp;Humidity;BMP_temperature;BMP_pressure;BME280_temperature;BME280_humidity;BME280_pressure;Samples;Min_cycle;Max_cycle;Signal;HPM_P1;HPM_P2
2022/04/03 00:02:18;;;;;;;32.20;19.75;;;;;;;;;;5056825;28;20319;-95
2022/04/03 00:04:44;;;;;;;27.42;18.80;;;;;;;;;;5042583;28;20017;-92
2022/04/03 00:07:11;;;;;;;29.40;19.42;;;;;;;;;;5061278;28;20063;-94
2022/04/03 00:09:37;;;;;;;30.38;18.85;;;;;;;;;;5060522;28;20017;-94
2022/04/03 00:12:03;;;;;;;25.38;17.77;;;;;;;;;;5060556;28;20461;-93
2022/04/03 00:14:29;;;;;;;28.38;18.58;;;;;;;;;;5060186;28;20029;-95
2022/04/03 00:16:56;;;;;;;26.85;18.80;;;;;;;;;;5060324;28;20314;-92
2022/04/03 00:19:22;;;;;;;29.77;18.33;;;;;;;;;;5060301;28;20024;-93
2022/04/03 00:21:49;;;;;;;27.08;17.73;;;;;;;;;;5061738;28;20029;-95
2022/04/03 00:24:15;;;;;;;31.80;19.33;;;;;;;;;;5059908;28;20070;-94
2022/04/03 00:26:41;;;;;;;25.20;17.20;;;;;;;;;;5060650;28;20028;-95
2022/04/03 00:29:07;;;;;;;24.25;16.90;;;;;;;;;;5057893;28;20410;-94
2022/04/03 00:31:34;;;;;;;25.48;17.58;;;;;;;;;;5042011;28;20041;-95
2022/04/03 00:34:00;;;;;;;25.08;17.75;;;;;;;;;;5059609;28;20028;-95
2022/04/03 00:36:26;;;;;;;24.35;17.13;;;;;;;;;;5042607;28;20540;-95
2022/04/03 00:38:52;;;;;;;25.55;18.00;;;;;;;;;;5042515;28;20047;-94
2022/04/03 00:41:27;;;;;;;27.17;18.08;;;;;;;;;;5062656;28;20024;-96
2022/04/03 00:43:54;;;;;;;25.80;18.17;;;;;;;;;;5059918;28;20025;-95
2022/04/03 00:46:23;;;;;;;27.38;18.55;;;;;;;;;;5061151;28;20024;-95
2022/04/03 00:48:50;;;;;;;25.88;18.63;;;;;;;;;;5043383;28;20056;-95
2022/04/03 00:51:18;;;;;;;25.38;18.55;;;;;;;;;;5061646;28;20025;-95
2022/04/03 00:53:44;;;;;;;28.52;18.35;;;;;;;;;;5070567;28;20046;-96
2022/04/03 00:56:19;;;;;;;24.40;16.88;;;;;;;;;;5063214;28;20032;-95
2022/04/03 00:58:45;;;;;;;27.20;18.02;;;;;;;;;;5062363;28;20025;-94
2022/04/03 01:01:12;;;;;;;26.27;18.70;;;;;;;;;;5059934;28;20029;-95
2022/04/03 01:03:38;;;;;;;24.52;18.27;;;;;;;;;;5059611;28;20323;-96
2022/04/03 01:06:04;;;;;;;27.95;18.40;;;;;;;;;;5060331;28;20052;-96
2022/04/03 01:08:30;;;;;;;28.92;18.48;;;;;;;;;;5043154;28;20017;-95
2022/04/03 01:10:56;;;;;;;26.20;18.17;;;;;;;;;;5061463;28;20346;-95
2022/04/03 01:13:22;;;;;;;29.02;18.88;;;;;;;;;;5059526;28;20021;-96
2022/04/03 01:15:59;;;;;;;27.05;17.95;;;;;;;;;;5042046;28;20079;-95
2022/04/03 01:18:25;;;;;;;25.25;18.08;;;;;;;;;;5060577;28;20025;-96
2022/04/03 01:20:52;;;;;;;26.17;18.90;;;;;;;;;;5059908;28;20040;-95
2022/04/03 01:23:19;;;;;;;28.60;17.95;;;;;;;;;;5059785;28;20029;-95
2022/04/03 01:25:46;;;;;;;24.52;17.45;;;;;;;;;;5059715;28;20024;-94
2022/04/03 01:28:12;;;;;;;26.80;18.08;;;;;;;;;;5059939;28;20029;-94
2022/04/03 01:30:38;;;;;;;23.55;16.52;;;;;;;;;;5059386;28;20041;-94
2022/04/03 01:33:04;;;;;;;25.42;17.35;;;;;;;;;;5061611;28;20032;-96
2022/04/03 01:35:45;;;;;;;25.00;17.13;;;;;;;;;;5035644;28;20060;-96
2022/04/03 01:38:17;;;;;;;22.70;16.20;;;;;;;;;;5020772;28;20044;-95
2022/04/03 01:51:07;;;;;;;21.85;16.33;;;;;;;;;;5118266;28;20043;-95
2022/04/03 01:53:33;;;;;;;22.33;17.27;;;;;;;;;;5120356;28;20039;-96
2022/04/03 01:56:03;;;;;;;23.08;17.02;;;;;;;;;;5119506;28;20413;-95
2022/04/03 01:58:29;;;;;;;24.15;17.52;;;;;;;;;;5119459;28;20028;-93
2022/04/03 02:00:56;;;;;;;22.27;16.25;;;;;;;;;;5118543;28;20020;-95
2022/04/03 02:03:22;;;;;;;23.00;17.52;;;;;;;;;;5118304;28;20035;-93
2022/04/03 02:05:48;;;;;;;23.92;17.73;;;;;;;;;;5119569;28;20023;-95
2022/04/03 02:08:14;;;;;;;26.67;17.42;;;;;;;;;;5119213;28;20023;-93
2022/04/03 02:10:40;;;;;;;24.83;17.45;;;;;;;;;;5118851;28;20405;-95
2022/04/03 02:13:06;;;;;;;24.50;16.98;;;;;;;;;;5118998;28;20032;-94
2022/04/03 02:15:32;;;;;;;25.88;16.98;;;;;;;;;;5118328;28;20027;-94
2022/04/03 02:17:58;;;;;;;23.20;16.85;;;;;;;;;;5118187;28;20416;-95
2022/04/03 02:20:24;;;;;;;24.75;16.58;;;;;;;;;;5119180;28;20032;-95
2022/04/03 02:22:50;;;;;;;22.50;15.82;;;;;;;;;;5118965;28;20320;-94
2022/04/03 02:25:16;;;;;;;22.80;16.40;;;;;;;;;;5119051;28;20356;-94
2022/04/03 02:27:44;;;;;;;23.33;16.08;;;;;;;;;;5117776;28;20286;-94
2022/04/03 02:30:11;;;;;;;21.42;15.75;;;;;;;;;;5117950;28;20317;-96
2022/04/03 02:32:37;;;;;;;22.17;15.35;;;;;;;;;;5119706;28;20103;-96
2022/04/03 02:35:06;;;;;;;20.50;15.32;;;;;;;;;;5121051;28;20019;-95
2022/04/03 02:37:32;;;;;;;20.85;15.30;;;;;;;;;;5120584;28;20404;-96
2022/04/03 02:39:58;;;;;;;24.02;15.32;;;;;;;;;;5118981;28;20037;-95
2022/04/03 02:42:25;;;;;;;22.42;15.65;;;;;;;;;;5118210;28;20016;-95
2022/04/03 02:44:51;;;;;;;24.05;15.63;;;;;;;;;;5118888;28;20030;-95
2022/04/03 02:47:17;;;;;;;21.63;16.25;;;;;;;;;;5118181;28;20380;-95
2022/04/03 02:49:43;;;;;;;27.77;20.52;;;;;;;;;;5118458;28;20051;-95
2022/04/03 02:52:10;;;;;;;96.93;41.95;;;;;;;;;;5118612;28;20024;-95
2022/04/03 02:54:36;;;;;;;44.47;27.67;;;;;;;;;;5118126;28;20063;-95
2022/04/03 02:57:02;;;;;;;27.70;19.30;;;;;;;;;;5118005;28;20437;-96
2022/04/03 02:59:28;;;;;;;26.30;18.33;;;;;;;;;;5118424;28;20324;-95
2022/04/03 03:01:54;;;;;;;24.38;16.73;;;;;;;;;;5118592;28;20020;-95
2022/04/03 03:04:23;;;;;;;24.45;16.27;;;;;;;;;;5125107;28;20015;-96
2022/04/03 03:06:49;;;;;;;25.42;17.05;;;;;;;;;;5125544;28;20024;-95
2022/04/03 03:09:17;;;;;;;27.80;18.15;;;;;;;;;;5119056;28;20383;-94
2022/04/03 03:11:44;;;;;;;26.85;18.58;;;;;;;;;;5118336;28;20084;-94
2022/04/03 03:14:10;;;;;;;25.42;17.63;;;;;;;;;;5118066;28;20422;-94
2022/04/03 03:16:36;;;;;;;27.10;17.38;;;;;;;;;;5118329;28;20068;-94
2022/04/03 03:19:02;;;;;;;25.08;17.10;;;;;;;;;;5118419;28;20035;-94
2022/04/03 03:21:29;;;;;;;22.52;16.17;;;;;;;;;;5118223;28;20011;-96
2022/04/03 03:23:55;;;;;;;22.02;15.95;;;;;;;;;;5118034;28;20433;-94
2022/04/03 03:26:21;;;;;;;25.17;16.42;;;;;;;;;;5118018;28;20024;-96
2022/04/03 03:28:47;;;;;;;22.33;16.00;;;;;;;;;;5119806;28;20443;-95
2022/04/03 03:31:13;;;;;;;25.27;16.55;;;;;;;;;;5122550;28;20020;-94
2022/04/03 03:33:39;;;;;;;22.38;16.88;;;;;;;;;;5122247;28;20028;-94
2022/04/03 03:36:05;;;;;;;23.02;16.85;;;;;;;;;;5122233;28;20024;-95
2022/04/03 03:38:31;;;;;;;25.55;17.90;;;;;;;;;;5122813;28;20034;-96
2022/04/03 03:40:57;;;;;;;25.75;18.42;;;;;;;;;;5122224;28;20410;-94
2022/04/03 03:43:23;;;;;;;22.05;16.77;;;;;;;;;;5120862;28;20054;-93
2022/04/03 03:45:50;;;;;;;21.30;16.58;;;;;;;;;;5121978;28;20398;-94
2022/04/03 03:48:16;;;;;;;24.00;17.08;;;;;;;;;;5120979;28;20023;-94
2022/04/03 03:50:42;;;;;;;26.23;18.25;;;;;;;;;;5120938;28;20051;-95
2022/04/03 03:53:08;;;;;;;26.42;17.25;;;;;;;;;;5121953;28;20055;-94
2022/04/03 03:55:34;;;;;;;24.83;17.60;;;;;;;;;;5122305;28;20429;-95
2022/04/03 03:58:00;;;;;;;29.42;19.75;;;;;;;;;;5121928;28;20028;-95
2022/04/03 04:00:26;;;;;;;25.23;18.30;;;;;;;;;;5121653;28;20024;-96
2022/04/03 04:02:52;;;;;;;29.75;17.90;;;;;;;;;;5120666;28;20034;-95
2022/04/03 04:05:18;;;;;;;25.77;18.10;;;;;;;;;;5121758;28;20099;-96
2022/04/03 04:07:45;;;;;;;22.27;16.70;;;;;;;;;;5121672;28;20364;-94
2022/04/03 04:10:12;;;;;;;23.10;16.23;;;;;;;;;;5121808;28;20389;-96
2022/04/03 04:12:39;;;;;;;20.75;15.43;;;;;;;;;;5121653;28;20052;-95
2022/04/03 04:15:05;;;;;;;24.80;17.35;;;;;;;;;;5121329;28;20047;-94
2022/04/03 04:17:38;;;;;;;31.80;23.20;;;;;;;;;;5121667;28;20295;-95
2022/04/03 04:20:09;;;;;;;28.48;18.33;;;;;;;;;;5121650;28;20100;-94
2022/04/03 04:22:35;;;;;;;24.05;16.98;;;;;;;;;;5120358;28;20031;-95
2022/04/03 04:25:01;;;;;;;21.85;16.15;;;;;;;;;;5121268;28;20064;-95
2022/04/03 04:27:28;;;;;;;24.15;17.50;;;;;;;;;;5127277;28;20020;-96
2022/04/03 04:29:54;;;;;;;39.45;21.77;;;;;;;;;;5121186;28;20022;-94
2022/04/03 04:32:21;;;;;;;38.95;23.33;;;;;;;;;;5121452;28;20034;-94
2022/04/03 04:34:48;;;;;;;32.63;20.17;;;;;;;;;;5122005;28;20031;-94
2022/04/03 04:37:14;;;;;;;26.85;18.08;;;;;;;;;;5121408;28;20051;-94
2022/04/03 04:39:40;;;;;;;24.85;16.52;;;;;;;;;;5120685;28;20047;-95
2022/04/03 04:42:06;;;;;;;23.58;16.35;;;;;;;;;;5120806;28;20028;-94
2022/04/03 04:44:32;;;;;;;19.80;14.55;;;;;;;;;;5103047;28;20035;-94
2022/04/03 04:46:58;;;;;;;22.15;14.70;;;;;;;;;;5119846;28;20111;-96
2022/04/03 04:49:25;;;;;;;18.80;14.38;;;;;;;;;;5120707;28;20047;-94
2022/04/03 04:51:51;;;;;;;21.92;14.98;;;;;;;;;;5121187;28;20020;-94
2022/04/03 04:54:17;;;;;;;23.52;16.23;;;;;;;;;;5120736;28;20016;-94
2022/04/03 04:56:43;;;;;;;20.38;14.93;;;;;;;;;;5120633;28;20023;-94
2022/04/03 04:59:10;;;;;;;22.08;15.50;;;;;;;;;;5119872;28;20043;-96
2022/04/03 05:01:36;;;;;;;23.27;15.80;;;;;;;;;;5120680;28;20416;-96
2022/04/03 05:04:02;;;;;;;21.10;14.73;;;;;;;;;;5119544;28;20028;-95
2022/04/03 05:06:29;;;;;;;18.38;14.05;;;;;;;;;;5120459;28;20041;-95
2022/04/03 05:08:56;;;;;;;19.23;14.32;;;;;;;;;;5120941;28;20016;-94
2022/04/03 05:11:23;;;;;;;18.02;13.48;;;;;;;;;;5120290;28;20020;-93
2022/04/03 05:13:49;;;;;;;17.52;12.98;;;;;;;;;;5121917;28;20069;-95
2022/04/03 05:16:21;;;;;;;20.90;14.25;;;;;;;;;;5133496;28;20024;-96
2022/04/03 05:18:48;;;;;;;22.75;14.77;;;;;;;;;;5129162;28;20047;-96
2022/04/03 05:21:14;;;;;;;21.48;15.60;;;;;;;;;;5120078;28;20040;-96
2022/04/03 05:23:41;;;;;;;19.38;15.35;;;;;;;;;;5120073;28;20076;-95
2022/04/03 05:26:07;;;;;;;16.35;13.68;;;;;;;;;;5119739;28;20023;-96
2022/04/03 05:28:35;;;;;;;17.95;13.65;;;;;;;;;;5121461;28;20309;-95
2022/04/03 05:31:02;;;;;;;20.58;15.25;;;;;;;;;;5122719;28;20094;-95
2022/04/03 05:33:28;;;;;;;21.50;14.48;;;;;;;;;;5120980;28;20099;-96
2022/04/03 05:35:57;;;;;;;20.52;14.02;;;;;;;;;;5121574;28;20038;-94
2022/04/03 05:38:23;;;;;;;22.50;14.20;;;;;;;;;;5121465;28;20286;-96
2022/04/03 05:40:49;;;;;;;19.08;13.25;;;;;;;;;;5124091;28;20024;-95
2022/04/03 05:43:15;;;;;;;19.98;14.52;;;;;;;;;;5121498;28;20027;-95
2022/04/03 05:45:42;;;;;;;17.75;13.85;;;;;;;;;;5101391;28;20016;-96
2022/04/03 05:48:09;;;;;;;19.95;14.15;;;;;;;;;;5102124;28;20024;-95
2022/04/03 05:50:38;;;;;;;24.30;15.18;;;;;;;;;;5113058;28;20131;-94
2022/04/03 05:53:05;;;;;;;18.17;12.98;;;;;;;;;;5101018;28;20103;-96
2022/04/03 05:55:31;;;;;;;20.85;14.60;;;;;;;;;;5099569;28;20131;-95
2022/04/03 05:57:57;;;;;;;18.17;13.63;;;;;;;;;;5099747;28;20069;-95
2022/04/03 06:13:25;;;;;;;62.95;39.00;;;;;;;;;;5149123;22;20053;-96
2022/04/03 06:15:51;;;;;;;38.65;28.23;;;;;;;;;;5027032;28;20045;-96
2022/04/03 06:18:18;;;;;;;21.85;14.65;;;;;;;;;;5021501;28;20018;-94
2022/04/03 06:20:45;;;;;;;23.85;19.27;;;;;;;;;;5026167;28;20026;-94
2022/04/03 06:23:18;;;;;;;38.63;25.63;;;;;;;;;;5039354;28;20450;-95
2022/04/03 06:25:45;;;;;;;25.77;19.35;;;;;;;;;;5032955;28;20038;-95
2022/04/03 06:28:11;;;;;;;28.23;19.95;;;;;;;;;;5036568;28;20025;-95
2022/04/03 06:30:37;;;;;;;36.78;24.98;;;;;;;;;;5019088;28;20046;-94
2022/04/03 06:33:03;;;;;;;26.02;15.55;;;;;;;;;;5020450;28;20335;-95
2022/04/03 06:41:37;;;;;;;23.67;15.07;;;;;;;;;;5024650;28;20037;-95
2022/04/03 06:44:04;;;;;;;27.20;17.95;;;;;;;;;;5036197;28;20025;-94
2022/04/03 06:46:30;;;;;;;19.90;15.82;;;;;;;;;;5037779;28;20025;-94
2022/04/03 06:48:57;;;;;;;25.38;15.80;;;;;;;;;;5033387;28;20033;-94
2022/04/03 06:51:23;;;;;;;24.20;14.38;;;;;;;;;;5025691;28;20022;-95
2022/04/03 06:53:49;;;;;;;20.75;14.43;;;;;;;;;;5018791;28;20029;-95
2022/04/03 06:56:15;;;;;;;19.33;13.82;;;;;;;;;;5025376;28;20323;-93
2022/04/03 06:58:41;;;;;;;19.98;13.45;;;;;;;;;;5025481;28;20416;-94
2022/04/03 07:01:07;;;;;;;29.63;16.70;;;;;;;;;;5038228;28;20052;-94
2022/04/03 07:03:34;;;;;;;30.13;16.95;;;;;;;;;;5028899;28;20021;-95
2022/04/03 07:06:00;;;;;;;26.05;16.20;;;;;;;;;;5038231;28;20057;-96
2022/04/03 07:08:28;;;;;;;19.85;13.77;;;;;;;;;;5036062;28;20060;-93
2022/04/03 07:10:54;;;;;;;23.30;15.63;;;;;;;;;;5024777;28;20025;-90
2022/04/03 07:13:20;;;;;;;32.15;17.63;;;;;;;;;;5024332;28;20452;-91
2022/04/03 07:15:50;;;;;;;22.92;14.50;;;;;;;;;;5020749;28;20046;-92
2022/04/03 07:18:16;;;;;;;26.30;15.45;;;;;;;;;;5034782;28;20433;-92
2022/04/03 07:20:43;;;;;;;33.75;17.75;;;;;;;;;;5031755;28;20084;-92
2022/04/03 07:23:09;;;;;;;27.40;16.42;;;;;;;;;;5026557;28;20030;-92
2022/04/03 07:25:35;;;;;;;33.05;17.30;;;;;;;;;;5032889;28;20336;-92
2022/04/03 07:28:01;;;;;;;29.42;17.88;;;;;;;;;;5036724;28;20056;-92
2022/04/03 07:30:27;;;;;;;32.83;17.27;;;;;;;;;;5029024;28;20025;-91
2022/04/03 07:32:53;;;;;;;25.13;15.13;;;;;;;;;;5016812;28;20026;-91
2022/04/03 07:35:19;;;;;;;27.88;15.93;;;;;;;;;;5016588;28;20026;-91
2022/04/03 07:37:45;;;;;;;23.52;12.30;;;;;;;;;;5016518;28;20038;-91
2022/04/03 07:40:12;;;;;;;23.80;12.23;;;;;;;;;;5016360;28;20041;-91
2022/04/03 07:42:39;;;;;;;32.05;14.30;;;;;;;;;;5016909;28;20022;-91
2022/04/03 07:45:06;;;;;;;34.65;15.25;;;;;;;;;;5017659;28;20332;-92
2022/04/03 07:47:32;;;;;;;21.70;11.90;;;;;;;;;;5016198;28;20408;-92
2022/04/03 07:50:18;;;;;;;15.15;9.20;;;;;;;;;;5017694;28;20026;-93
2022/04/03 07:52:45;;;;;;;20.92;11.60;;;;;;;;;;5017498;28;20032;-92
2022/04/03 07:55:11;;;;;;;26.88;14.93;;;;;;;;;;5017431;28;20435;-92
2022/04/03 07:57:40;;;;;;;30.30;15.75;;;;;;;;;;5017426;28;20049;-92
2022/04/03 08:00:08;;;;;;;32.13;18.85;;;;;;;;;;5017635;28;20050;-92
2022/04/03 08:02:34;;;;;;;23.58;13.70;;;;;;;;;;5017574;28;20108;-91
2022/04/03 08:05:01;;;;;;;16.52;11.02;;;;;;;;;;5017481;28;20026;-91
2022/04/03 08:07:39;;;;;;;12.13;8.55;;;;;;;;;;5017372;28;20018;-91
2022/04/03 08:10:08;;;;;;;13.38;8.63;;;;;;;;;;5017287;28;20014;-91
2022/04/03 08:12:34;;;;;;;18.27;12.32;;;;;;;;;;5017347;28;20062;-91
2022/04/03 08:15:00;;;;;;;19.85;11.00;;;;;;;;;;5017652;28;20045;-93
2022/04/03 08:17:26;;;;;;;16.13;10.18;;;;;;;;;;5020947;28;20076;-91
2022/04/03 08:19:53;;;;;;;14.52;9.73;;;;;;;;;;5020621;28;20021;-92
2022/04/03 08:22:19;;;;;;;16.27;10.60;;;;;;;;;;5020881;28;20056;-93
2022/04/03 08:24:45;;;;;;;12.40;8.40;;;;;;;;;;5021079;28;20469;-92
2022/04/03 08:27:12;;;;;;;13.15;7.80;;;;;;;;;;5020647;28;20407;-91
2022/04/03 08:29:38;;;;;;;14.25;9.82;;;;;;;;;;5021026;28;20093;-93
2022/04/03 08:32:04;;;;;;;16.83;10.38;;;;;;;;;;5020856;28;20025;-91
2022/04/03 08:34:30;;;;;;;18.27;11.80;;;;;;;;;;5020677;28;20018;-91
2022/04/03 08:36:57;;;;;;;22.35;12.50;;;;;;;;;;5019573;28;20128;-92
2022/04/03 08:39:23;;;;;;;21.45;11.52;;;;;;;;;;5029428;28;20026;-90
2022/04/03 08:41:49;;;;;;;15.15;9.88;;;;;;;;;;5020555;28;20037;-94
2022/04/03 08:44:16;;;;;;;22.70;11.93;;;;;;;;;;5019755;28;20042;-93
2022/04/03 08:46:44;;;;;;;17.23;10.80;;;;;;;;;;5020474;28;20108;-92
2022/04/03 08:49:11;;;;;;;16.90;10.27;;;;;;;;;;5020554;28;20034;-92
2022/04/03 08:51:37;;;;;;;19.10;11.88;;;;;;;;;;5019418;28;20034;-92
2022/04/03 08:54:04;;;;;;;19.92;12.10;;;;;;;;;;5020272;28;20025;-92
2022/04/03 08:56:30;;;;;;;15.30;9.50;;;;;;;;;;5020327;28;20030;-93
2022/04/03 08:58:57;;;;;;;13.00;8.50;;;;;;;;;;5020583;28;20113;-93
2022/04/03 09:01:24;;;;;;;13.15;8.85;;;;;;;;;;5020362;28;20033;-92
2022/04/03 09:03:50;;;;;;;13.30;9.13;;;;;;;;;;5019798;28;20026;-92
2022/04/03 09:06:23;;;;;;;12.50;8.05;;;;;;;;;;5020045;28;20030;-93
2022/04/03 09:08:49;;;;;;;7.78;6.47;;;;;;;;;;5019095;28;20032;-91
2022/04/03 09:11:16;;;;;;;9.10;6.38;;;;;;;;;;5019793;28;20024;-93
2022/04/03 09:13:43;;;;;;;27.05;10.18;;;;;;;;;;5019764;28;20478;-93
2022/04/03 09:16:09;;;;;;;14.20;7.65;;;;;;;;;;5019967;28;20026;-93
2022/04/03 09:18:51;;;;;;;11.40;6.72;;;;;;;;;;5020018;28;20033;-92
2022/04/03 09:21:27;;;;;;;10.98;5.90;;;;;;;;;;5019773;28;20408;-91
2022/04/03 09:23:57;;;;;;;17.42;7.95;;;;;;;;;;5018471;28;20331;-93
2022/04/03 09:26:24;;;;;;;11.48;6.85;;;;;;;;;;5025285;28;20022;-91
2022/04/03 09:28:50;;;;;;;6.97;5.28;;;;;;;;;;5019567;28;20025;-93
2022/04/03 09:31:26;;;;;;;8.77;6.82;;;;;;;;;;5019774;28;20029;-94
2022/04/03 09:34:01;;;;;;;11.45;8.25;;;;;;;;;;5019568;28;20431;-91
2022/04/03 09:36:31;;;;;;;10.00;6.65;;;;;;;;;;5018190;28;20034;-93
2022/04/03 09:39:07;;;;;;;8.68;6.65;;;;;;;;;;5037146;28;20029;-93
2022/04/03 09:41:34;;;;;;;10.15;6.40;;;;;;;;;;5039492;28;20033;-93
2022/04/03 09:44:15;;;;;;;6.43;5.07;;;;;;;;;;5038905;28;20030;-91
2022/04/03 09:46:41;;;;;;;6.22;4.80;;;;;;;;;;5038196;28;20030;-93
2022/04/03 09:49:22;;;;;;;7.32;5.10;;;;;;;;;;5038190;28;20033;-92
2022/04/03 09:51:48;;;;;;;7.80;5.32;;;;;;;;;;5039033;28;20026;-91
2022/04/03 09:54:19;;;;;;;10.45;6.15;;;;;;;;;;5038882;28;20108;-92
2022/04/03 09:56:45;;;;;;;11.88;6.07;;;;;;;;;;5038023;28;20061;-92
2022/04/03 09:59:11;;;;;;;13.57;7.10;;;;;;;;;;5039118;28;20036;-90
2022/04/03 10:01:38;;;;;;;29.13;11.25;;;;;;;;;;5038080;28;20037;-92
2022/04/03 10:04:06;;;;;;;9.70;5.85;;;;;;;;;;5037874;28;20029;-92
2022/04/03 10:06:34;;;;;;;17.42;8.10;;;;;;;;;;5038902;28;20030;-92
2022/04/03 10:09:00;;;;;;;8.63;5.38;;;;;;;;;;5038701;28;20044;-91
2022/04/03 10:11:27;;;;;;;8.00;5.97;;;;;;;;;;5037720;28;20026;-91
2022/04/03 10:13:53;;;;;;;6.93;5.47;;;;;;;;;;5037608;28;20136;-91
2022/04/03 10:16:20;;;;;;;7.72;5.80;;;;;;;;;;5038597;28;20025;-92
2022/04/03 10:18:47;;;;;;;8.90;7.80;;;;;;;;;;5038736;28;20025;-91
2022/04/03 10:21:16;;;;;;;9.50;8.02;;;;;;;;;;5037456;28;20022;-93
2022/04/03 10:23:43;;;;;;;11.45;9.32;;;;;;;;;;5038473;28;20031;-91
2022/04/03 10:26:11;;;;;;;12.48;10.70;;;;;;;;;;5038810;28;20067;-91
2022/04/03 10:28:38;;;;;;;14.52;11.35;;;;;;;;;;5037397;28;20140;-91
2022/04/03 10:31:07;;;;;;;13.88;10.68;;;;;;;;;;5037880;28;20025;-92
2022/04/03 10:33:40;;;;;;;13.65;10.15;;;;;;;;;;5037914;28;20029;-91
2022/04/03 10:36:06;;;;;;;14.30;10.98;;;;;;;;;;5038249;28;20029;-92
2022/04/03 10:38:40;;;;;;;12.77;10.80;;;;;;;;;;5037592;28;20491;-92
2022/04/03 10:41:06;;;;;;;15.18;11.32;;;;;;;;;;5037967;28;20036;-90
2022/04/03 10:43:37;;;;;;;14.50;10.75;;;;;;;;;;5037955;28;20035;-91
2022/04/03 10:46:03;;;;;;;14.25;10.90;;;;;;;;;;5036745;28;20055;-91
2022/04/03 10:48:30;;;;;;;18.80;13.20;;;;;;;;;;5038205;28;20025;-92
2022/04/03 10:51:23;;;;;;;17.52;13.82;;;;;;;;;;5036815;28;20022;-91
2022/04/03 10:53:50;;;;;;;17.58;13.50;;;;;;;;;;5037902;28;20029;-91
2022/04/03 10:56:35;;;;;;;15.88;13.07;;;;;;;;;;5038083;28;20022;-92
2022/04/03 10:59:10;;;;;;;15.73;12.30;;;;;;;;;;5036948;28;20416;-92
2022/04/03 11:01:36;;;;;;;17.05;12.45;;;;;;;;;;5038008;28;20026;-91
2022/04/03 11:04:09;;;;;;;16.15;13.45;;;;;;;;;;5037582;28;20030;-91
2022/04/03 11:06:36;;;;;;;16.10;13.07;;;;;;;;;;5036514;28;20021;-91
2022/04/03 11:09:13;;;;;;;14.88;11.88;;;;;;;;;;5037003;28;20032;-90
2022/04/03 11:11:49;;;;;;;19.65;14.50;;;;;;;;;;5037740;28;20021;-91
2022/04/03 11:14:34;;;;;;;17.23;12.43;;;;;;;;;;5036833;28;20484;-91
2022/04/03 11:17:00;;;;;;;15.15;12.73;;;;;;;;;;5036836;28;20037;-90
2022/04/03 11:19:34;;;;;;;12.85;11.07;;;;;;;;;;5036998;28;20033;-93
2022/04/03 11:22:00;;;;;;;11.98;10.38;;;;;;;;;;5037955;28;20076;-91
2022/04/03 11:24:27;;;;;;;13.15;10.82;;;;;;;;;;5037583;28;20040;-91
2022/04/03 11:26:53;;;;;;;14.38;11.45;;;;;;;;;;5036734;28;20057;-90
2022/04/03 11:29:19;;;;;;;14.65;10.73;;;;;;;;;;5037842;28;20118;-93
2022/04/03 11:31:46;;;;;;;17.25;13.10;;;;;;;;;;5037758;28;20467;-91
2022/04/03 11:34:12;;;;;;;13.27;10.60;;;;;;;;;;5037400;28;20116;-90
2022/04/03 11:36:38;;;;;;;15.75;11.90;;;;;;;;;;5037380;28;20430;-90
2022/04/03 11:39:08;;;;;;;13.45;10.38;;;;;;;;;;5037477;28;20022;-90
2022/04/03 11:41:35;;;;;;;14.27;10.60;;;;;;;;;;5036329;28;20061;-90
2022/04/03 11:44:05;;;;;;;11.30;8.98;;;;;;;;;;5037371;28;20034;-90
2022/04/03 11:46:36;;;;;;;10.95;8.88;;;;;;;;;;5037281;28;20029;-89
2022/04/03 11:49:09;;;;;;;11.82;9.75;;;;;;;;;;5037489;28;20022;-91
2022/04/03 11:51:35;;;;;;;10.70;8.57;;;;;;;;;;5041456;28;20032;-91
2022/04/03 11:54:01;;;;;;;10.75;8.25;;;;;;;;;;5041342;28;20047;-90
2022/04/03 11:56:29;;;;;;;9.82;8.02;;;;;;;;;;5040560;28;20030;-91
2022/04/03 11:58:57;;;;;;;16.05;11.15;;;;;;;;;;5040996;28;20030;-91
2022/04/03 12:01:26;;;;;;;11.73;9.05;;;;;;;;;;5039688;28;20041;-90
2022/04/03 12:04:01;;;;;;;12.82;9.73;;;;;;;;;;5040022;28;20048;-90
2022/04/03 12:06:29;;;;;;;11.45;8.98;;;;;;;;;;5041075;28;20100;-87
2022/04/03 12:08:55;;;;;;;9.88;8.45;;;;;;;;;;5041077;28;20100;-89
2022/04/03 12:11:26;;;;;;;10.95;8.63;;;;;;;;;;5040876;28;20033;-88
2022/04/03 12:13:53;;;;;;;10.57;8.18;;;;;;;;;;5037603;28;20320;-89
2022/04/03 12:16:23;;;;;;;10.63;8.07;;;;;;;;;;5020991;28;20030;-88
2022/04/03 12:18:49;;;;;;;9.75;7.97;;;;;;;;;;5021032;28;20045;-89
2022/04/03 12:21:17;;;;;;;9.85;7.60;;;;;;;;;;5019491;28;20038;-89
2022/04/03 12:24:03;;;;;;;9.07;7.25;;;;;;;;;;5020729;28;20034;-89
2022/04/03 12:26:29;;;;;;;9.45;7.00;;;;;;;;;;5020746;28;20022;-89
2022/04/03 12:28:56;;;;;;;10.30;7.50;;;;;;;;;;5019533;28;20084;-89
2022/04/03 12:31:29;;;;;;;8.45;7.15;;;;;;;;;;5021041;28;20135;-88
2022/04/03 12:34:09;;;;;;;10.05;6.90;;;;;;;;;;5019486;28;20034;-89
2022/04/03 12:36:39;;;;;;;7.32;6.20;;;;;;;;;;5020660;28;20439;-89
2022/04/03 12:39:05;;;;;;;8.13;6.35;;;;;;;;;;5020528;28;20068;-89
2022/04/03 12:41:31;;;;;;;8.20;6.43;;;;;;;;;;5020351;28;20060;-88
2022/04/03 12:43:59;;;;;;;7.35;5.97;;;;;;;;;;5018941;28;20376;-89
2022/04/03 12:46:35;;;;;;;8.45;6.10;;;;;;;;;;5020385;28;20033;-88
2022/04/03 12:49:01;;;;;;;8.55;6.93;;;;;;;;;;5020557;28;20029;-89
2022/04/03 12:51:28;;;;;;;9.05;6.90;;;;;;;;;;5020373;28;20022;-90
2022/04/03 12:53:57;;;;;;;9.35;6.18;;;;;;;;;;5020652;28;20025;-89
2022/04/03 12:58:24;;;;;;;7.57;6.40;;;;;;;;;;5020358;28;20058;-90
2022/04/03 12:59:20;;;;;;;9.15;6.75;;;;;;;;;;5020145;28;20026;-89
2022/04/03 13:01:51;;;;;;;8.73;6.45;;;;;;;;;;5018517;28;20064;-89
2022/04/03 13:04:32;;;;;;;8.60;6.50;;;;;;;;;;5019976;28;20056;-89
2022/04/03 13:06:59;;;;;;;8.55;6.43;;;;;;;;;;5020082;28;20026;-90
2022/04/03 13:09:25;;;;;;;8.43;6.53;;;;;;;;;;5020255;28;20022;-90
2022/04/03 13:11:54;;;;;;;8.38;6.05;;;;;;;;;;5019826;28;20084;-89
2022/04/03 13:14:22;;;;;;;8.52;6.80;;;;;;;;;;5020235;28;20293;-89
2022/04/03 13:16:48;;;;;;;13.55;8.52;;;;;;;;;;5019891;28;20293;-92
2022/04/03 13:19:15;;;;;;;13.95;8.82;;;;;;;;;;5020086;28;20034;-90
2022/04/03 13:21:41;;;;;;;10.10;7.55;;;;;;;;;;5019832;28;20030;-90
2022/04/03 13:24:08;;;;;;;10.52;8.05;;;;;;;;;;5019840;28;20053;-91
2022/04/03 13:26:34;;;;;;;11.35;7.75;;;;;;;;;;5019665;28;20105;-88
2022/04/03 13:29:00;;;;;;;12.45;8.75;;;;;;;;;;5019620;28;20026;-91
2022/04/03 13:31:27;;;;;;;7.70;6.30;;;;;;;;;;5019672;28;20026;-90
2022/04/03 13:33:53;;;;;;;16.60;11.15;;;;;;;;;;5019946;28;20030;-89
2022/04/03 13:36:20;;;;;;;22.55;12.98;;;;;;;;;;5018609;28;20408;-91
2022/04/03 13:38:46;;;;;;;35.80;20.85;;;;;;;;;;5019519;28;20026;-90
2022/04/03 13:41:15;;;;;;;20.88;13.30;;;;;;;;;;5019413;28;20058;-90
2022/04/03 13:43:42;;;;;;;20.27;13.43;;;;;;;;;;5018323;28;20088;-90
2022/04/03 13:46:08;;;;;;;17.58;11.88;;;;;;;;;;5019135;28;20026;-90
2022/04/03 13:48:38;;;;;;;20.92;11.80;;;;;;;;;;5019379;28;20026;-91
2022/04/03 13:51:05;;;;;;;12.30;8.75;;;;;;;;;;5018169;28;20483;-90
2022/04/03 13:53:31;;;;;;;11.57;8.60;;;;;;;;;;5019190;28;20072;-91
2022/04/03 13:55:57;;;;;;;11.70;8.32;;;;;;;;;;5019408;28;20026;-90
2022/04/03 13:58:26;;;;;;;13.93;9.13;;;;;;;;;;5019044;28;20026;-90
2022/04/03 14:00:59;;;;;;;18.98;11.43;;;;;;;;;;5019041;28;20036;-89
2022/04/03 14:03:29;;;;;;;24.58;15.07;;;;;;;;;;5018806;28;20137;-89
2022/04/03 14:05:55;;;;;;;28.52;18.65;;;;;;;;;;5017910;28;20482;-89
2022/04/03 14:08:22;;;;;;;18.55;12.48;;;;;;;;;;5019035;28;20061;-90
2022/04/03 14:10:49;;;;;;;20.85;11.35;;;;;;;;;;5019024;28;20408;-90
2022/04/03 14:13:15;;;;;;;14.82;9.82;;;;;;;;;;5017644;28;20066;-89
2022/04/03 14:15:42;;;;;;;18.50;12.18;;;;;;;;;;5017505;28;20046;-90
2022/04/03 14:18:08;;;;;;;18.65;11.82;;;;;;;;;;5019159;28;20324;-90
2022/04/03 14:20:35;;;;;;;16.92;11.80;;;;;;;;;;5018718;28;20077;-88
2022/04/03 14:23:01;;;;;;;13.73;10.48;;;;;;;;;;5017634;28;20057;-89
2022/04/03 14:25:28;;;;;;;12.05;8.93;;;;;;;;;;5018642;28;20018;-89
2022/04/03 14:27:55;;;;;;;13.93;10.27;;;;;;;;;;5018658;28;20026;-90
2022/04/03 14:30:21;;;;;;;18.70;10.48;;;;;;;;;;5018388;28;20029;-89
2022/04/03 14:32:48;;;;;;;20.48;11.90;;;;;;;;;;5018771;28;20042;-89
2022/04/03 14:35:14;;;;;;;16.90;12.10;;;;;;;;;;5021245;28;20033;-90
2022/04/03 14:37:42;;;;;;;16.35;11.85;;;;;;;;;;5029948;28;20029;-90
2022/04/03 14:40:08;;;;;;;26.48;13.90;;;;;;;;;;5037620;28;20029;-89
2022/04/03 14:42:35;;;;;;;22.98;13.60;;;;;;;;;;5025523;28;20030;-88
2022/04/03 14:45:01;;;;;;;21.65;13.30;;;;;;;;;;5022790;28;20439;-90
2022/04/03 14:47:27;;;;;;;23.05;13.57;;;;;;;;;;5038302;28;20028;-89
2022/04/03 14:50:30;;;;;;;19.98;12.85;;;;;;;;;;5018784;28;20407;-88
2022/04/03 14:52:57;;;;;;;27.95;14.48;;;;;;;;;;5024046;28;20066;-87
2022/04/03 14:55:23;;;;;;;22.05;15.27;;;;;;;;;;5027625;28;20044;-90